SWR1794 LSZH-LMML
Flight info
| Callsign | SWR1794 |
|---|---|
| Flight time | N/A |
| Altitude | 38000 |
| Route | VEBIT T53 GERSA DCT SOSON DCT ODINA DCT BAKRO/N0433F370 DCT RONAB DCT MARON DCT EKOLA L12 GZO |
| Aircraft | A320/M-SDE2E3FGHIJ1RWXY/LB1 |
Departure
| Time | N/A |
|---|---|
| Airport | Zürich Airport (LSZH) |
Arrival
| Time | 2026-04-30 20:08 |
|---|---|
| Airport | Malta International Airport (LMML) |
| Time | Latitude | Longitude | Altitude | Speed | Heading |
|---|---|---|---|---|---|
| 2026-04-30 19:18 | 40.92145 | 11.28027 | 38126 ft | 487 kts | 162° |
| 2026-04-30 19:19 | 40.85952 | 11.31687 | 38158 ft | 488 kts | 162° |
| 2026-04-30 19:19 | 40.76652 | 11.37155 | 38112 ft | 488 kts | 162° |
| 2026-04-30 19:20 | 40.70438 | 11.40803 | 38125 ft | 489 kts | 162° |
| 2026-04-30 19:21 | 40.61153 | 11.46239 | 38131 ft | 490 kts | 162° |
| 2026-04-30 19:22 | 40.48699 | 11.53514 | 38126 ft | 490 kts | 162° |
| 2026-04-30 19:23 | 40.30014 | 11.64371 | 38108 ft | 489 kts | 163° |
| 2026-04-30 19:24 | 40.20689 | 11.69764 | 38145 ft | 488 kts | 163° |
| 2026-04-30 19:25 | 40.05144 | 11.78703 | 38132 ft | 488 kts | 163° |
| 2026-04-30 19:26 | 39.92702 | 11.85848 | 38135 ft | 488 kts | 163° |
| 2026-04-30 19:27 | 39.83396 | 11.91283 | 38113 ft | 491 kts | 160° |
| 2026-04-30 19:28 | 39.74302 | 11.97481 | 38134 ft | 492 kts | 158° |
| 2026-04-30 19:29 | 39.62185 | 12.05705 | 38117 ft | 491 kts | 160° |
| 2026-04-30 19:30 | 39.50062 | 12.13684 | 38127 ft | 490 kts | 159° |
| 2026-04-30 19:31 | 39.37926 | 12.21724 | 38093 ft | 490 kts | 159° |
| 2026-04-30 19:31 | 39.28829 | 12.27709 | 38120 ft | 489 kts | 159° |
| 2026-04-30 19:32 | 39.22774 | 12.31685 | 38130 ft | 488 kts | 159° |
| 2026-04-30 19:32 | 39.16718 | 12.35651 | 38129 ft | 488 kts | 159° |
| 2026-04-30 19:33 | 39.10671 | 12.39611 | 38110 ft | 487 kts | 159° |
| 2026-04-30 19:33 | 39.04622 | 12.43567 | 38118 ft | 487 kts | 159° |
| 2026-04-30 19:34 | 38.98576 | 12.47515 | 38117 ft | 488 kts | 160° |
| 2026-04-30 19:35 | 38.89493 | 12.53410 | 38085 ft | 487 kts | 159° |
| 2026-04-30 19:35 | 38.83443 | 12.57329 | 38096 ft | 487 kts | 159° |
| 2026-04-30 19:36 | 38.77391 | 12.61245 | 38103 ft | 487 kts | 159° |
| 2026-04-30 19:36 | 38.68322 | 12.67105 | 38088 ft | 487 kts | 160° |
| 2026-04-30 19:37 | 38.62273 | 12.70998 | 38070 ft | 486 kts | 159° |
| 2026-04-30 19:37 | 38.56226 | 12.74884 | 38090 ft | 486 kts | 159° |
| 2026-04-30 19:38 | 38.50187 | 12.78758 | 38094 ft | 486 kts | 159° |
| 2026-04-30 19:38 | 38.44140 | 12.82628 | 38086 ft | 486 kts | 159° |
| 2026-04-30 19:39 | 38.38098 | 12.86494 | 38057 ft | 486 kts | 159° |
| 2026-04-30 19:39 | 38.32053 | 12.90362 | 38060 ft | 486 kts | 159° |
| 2026-04-30 19:40 | 38.26015 | 12.94218 | 38060 ft | 486 kts | 159° |
| 2026-04-30 19:40 | 38.19972 | 12.98048 | 38057 ft | 485 kts | 160° |
| 2026-04-30 19:41 | 38.13926 | 13.01878 | 38035 ft | 485 kts | 159° |
| 2026-04-30 19:41 | 38.07893 | 13.05700 | 38054 ft | 485 kts | 159° |
| 2026-04-30 19:42 | 38.01860 | 13.09523 | 38064 ft | 484 kts | 159° |
| 2026-04-30 19:42 | 37.95835 | 13.13338 | 38079 ft | 484 kts | 159° |
| 2026-04-30 19:43 | 37.89809 | 13.17132 | 38042 ft | 484 kts | 159° |
| 2026-04-30 19:44 | 37.80775 | 13.22803 | 38081 ft | 483 kts | 159° |
| 2026-04-30 19:44 | 37.74780 | 13.26560 | 38087 ft | 483 kts | 159° |
| 2026-04-30 19:45 | 37.68756 | 13.30333 | 38079 ft | 483 kts | 159° |
| 2026-04-30 19:45 | 37.62741 | 13.34100 | 38081 ft | 483 kts | 159° |
| 2026-04-30 19:46 | 37.56728 | 13.37852 | 38089 ft | 482 kts | 159° |
| 2026-04-30 19:46 | 37.50703 | 13.41593 | 37725 ft | 482 kts | 159° |
| 2026-04-30 19:46 | 37.47696 | 13.43463 | 37453 ft | 482 kts | 159° |
| 2026-04-30 19:47 | 37.44689 | 13.45333 | 37171 ft | 482 kts | 159° |
| 2026-04-30 19:47 | 37.42655 | 13.46596 | 36624 ft | 484 kts | 159° |
| 2026-04-30 19:47 | 37.38582 | 13.49113 | 34875 ft | 499 kts | 159° |
| 2026-04-30 19:47 | 37.35438 | 13.51053 | 33769 ft | 505 kts | 159° |
| 2026-04-30 19:48 | 37.32314 | 13.52993 | 33087 ft | 496 kts | 159° |
| 2026-04-30 19:48 | 37.29242 | 13.54907 | 32246 ft | 490 kts | 159° |
| 2026-04-30 19:48 | 37.26203 | 13.56798 | 31452 ft | 484 kts | 159° |
| 2026-04-30 19:48 | 37.23213 | 13.58651 | 30507 ft | 476 kts | 159° |
| 2026-04-30 19:49 | 37.20260 | 13.60471 | 29447 ft | 470 kts | 159° |
| 2026-04-30 19:49 | 37.14477 | 13.64023 | 27376 ft | 456 kts | 159° |
| 2026-04-30 19:49 | 37.11648 | 13.65743 | 26409 ft | 448 kts | 159° |
| 2026-04-30 19:50 | 37.08827 | 13.67328 | 25473 ft | 441 kts | 161° |
| 2026-04-30 19:50 | 37.06016 | 13.68784 | 24739 ft | 430 kts | 162° |
| 2026-04-30 19:50 | 37.03287 | 13.70135 | 24303 ft | 414 kts | 163° |
| 2026-04-30 19:50 | 37.00651 | 13.71427 | 23834 ft | 400 kts | 163° |
| 2026-04-30 19:51 | 36.98100 | 13.72688 | 23326 ft | 388 kts | 163° |
| 2026-04-30 19:51 | 36.95642 | 13.73925 | 22877 ft | 374 kts | 162° |
| 2026-04-30 19:51 | 36.93249 | 13.75145 | 22442 ft | 371 kts | 162° |
| 2026-04-30 19:51 | 36.90867 | 13.76366 | 21985 ft | 369 kts | 162° |
| 2026-04-30 19:52 | 36.88495 | 13.77586 | 21564 ft | 368 kts | 162° |
| 2026-04-30 19:52 | 36.86129 | 13.78803 | 21130 ft | 367 kts | 162° |
| 2026-04-30 19:52 | 36.84566 | 13.79606 | 20849 ft | 367 kts | 162° |
| 2026-04-30 19:52 | 36.82208 | 13.80817 | 20419 ft | 366 kts | 162° |
| 2026-04-30 19:53 | 36.79093 | 13.82411 | 19840 ft | 365 kts | 162° |
| 2026-04-30 19:53 | 36.76744 | 13.83610 | 19420 ft | 365 kts | 162° |
| 2026-04-30 19:53 | 36.74397 | 13.84805 | 18994 ft | 364 kts | 162° |
| 2026-04-30 19:53 | 36.72048 | 13.86002 | 18573 ft | 364 kts | 161° |
| 2026-04-30 19:54 | 36.69703 | 13.87198 | 18110 ft | 364 kts | 161° |
| 2026-04-30 19:54 | 36.68121 | 13.88005 | 17811 ft | 363 kts | 161° |
| 2026-04-30 19:54 | 36.65788 | 13.89199 | 17382 ft | 361 kts | 161° |
| 2026-04-30 19:54 | 36.63471 | 13.90385 | 16973 ft | 359 kts | 161° |
| 2026-04-30 19:55 | 36.61166 | 13.91562 | 16564 ft | 357 kts | 161° |
| 2026-04-30 19:55 | 36.58869 | 13.92730 | 16152 ft | 356 kts | 161° |
| 2026-04-30 19:55 | 36.56578 | 13.93891 | 15738 ft | 355 kts | 161° |
| 2026-04-30 19:55 | 36.54290 | 13.95049 | 15329 ft | 354 kts | 161° |
| 2026-04-30 19:56 | 36.52013 | 13.96204 | 14922 ft | 353 kts | 161° |
| 2026-04-30 19:56 | 36.49742 | 13.97358 | 14514 ft | 352 kts | 161° |
| 2026-04-30 19:56 | 36.47475 | 13.98508 | 14105 ft | 352 kts | 160° |
| 2026-04-30 19:56 | 36.45206 | 13.99657 | 13667 ft | 351 kts | 160° |
| 2026-04-30 19:57 | 36.42947 | 14.00798 | 13245 ft | 349 kts | 160° |
| 2026-04-30 19:57 | 36.40701 | 14.01933 | 12827 ft | 347 kts | 160° |
| 2026-04-30 19:57 | 36.38473 | 14.03062 | 12409 ft | 345 kts | 160° |
| 2026-04-30 19:57 | 36.36287 | 14.04168 | 12007 ft | 343 kts | 160° |
| 2026-04-30 19:58 | 36.34086 | 14.05279 | 11573 ft | 341 kts | 160° |
| 2026-04-30 19:58 | 36.31898 | 14.06383 | 11155 ft | 339 kts | 160° |
| 2026-04-30 19:58 | 36.29717 | 14.07481 | 10717 ft | 337 kts | 160° |
| 2026-04-30 19:58 | 36.27550 | 14.08570 | 10286 ft | 335 kts | 160° |
| 2026-04-30 19:59 | 36.25411 | 14.09646 | 10068 ft | 326 kts | 160° |
| 2026-04-30 19:59 | 36.23348 | 14.10687 | 9922 ft | 315 kts | 160° |
| 2026-04-30 19:59 | 36.19361 | 14.12695 | 9167 ft | 303 kts | 160° |
| 2026-04-30 20:00 | 36.17419 | 14.13683 | 8593 ft | 300 kts | 156° |
| 2026-04-30 20:00 | 36.15660 | 14.15049 | 8018 ft | 298 kts | 145° |
| 2026-04-30 20:00 | 36.14003 | 14.16570 | 7458 ft | 295 kts | 144° |
| 2026-04-30 20:00 | 36.12410 | 14.18041 | 7306 ft | 275 kts | 144° |
| 2026-04-30 20:01 | 36.09558 | 14.20676 | 7005 ft | 240 kts | 144° |
| 2026-04-30 20:01 | 36.08239 | 14.21896 | 6633 ft | 235 kts | 144° |
| 2026-04-30 20:01 | 36.06939 | 14.23104 | 6216 ft | 233 kts | 144° |
| 2026-04-30 20:02 | 36.04380 | 14.25447 | 5365 ft | 229 kts | 143° |
| 2026-04-30 20:02 | 36.03082 | 14.26580 | 4973 ft | 228 kts | 144° |
| 2026-04-30 20:03 | 36.00733 | 14.29102 | 4361 ft | 213 kts | 133° |
| 2026-04-30 20:03 | 35.99717 | 14.30370 | 4122 ft | 202 kts | 133° |
| 2026-04-30 20:03 | 35.98746 | 14.31583 | 3834 ft | 196 kts | 131° |
| 2026-04-30 20:03 | 35.97797 | 14.32768 | 3573 ft | 193 kts | 132° |
| 2026-04-30 20:04 | 35.96884 | 14.33905 | 3329 ft | 182 kts | 131° |
| 2026-04-30 20:04 | 35.96011 | 14.34992 | 3105 ft | 176 kts | 131° |
| 2026-04-30 20:04 | 35.95157 | 14.36056 | 2878 ft | 174 kts | 131° |
| 2026-04-30 20:05 | 35.93467 | 14.38160 | 2417 ft | 171 kts | 130° |
| 2026-04-30 20:05 | 35.92632 | 14.39197 | 2188 ft | 166 kts | 130° |
| 2026-04-30 20:05 | 35.91155 | 14.41035 | 1724 ft | 140 kts | 129° |
| 2026-04-30 20:06 | 35.90476 | 14.41878 | 1545 ft | 138 kts | 129° |
| 2026-04-30 20:06 | 35.89800 | 14.42710 | 1410 ft | 137 kts | 129° |
| 2026-04-30 20:06 | 35.89133 | 14.43543 | 1234 ft | 136 kts | 128° |
| 2026-04-30 20:06 | 35.88470 | 14.44361 | 1052 ft | 135 kts | 129° |
| 2026-04-30 20:07 | 35.87811 | 14.45194 | 900 ft | 136 kts | 129° |
| 2026-04-30 20:07 | 35.87148 | 14.46022 | 712 ft | 136 kts | 131° |
| 2026-04-30 20:07 | 35.85802 | 14.47684 | 334 ft | 137 kts | 130° |
| 2026-04-30 20:08 | 35.85172 | 14.48477 | 269 ft | 116 kts | 134° |
| 2026-04-30 20:08 | 35.84767 | 14.48970 | 261 ft | 60 kts | 135° |
| 2026-04-30 20:08 | 35.84555 | 14.49240 | 260 ft | 26 kts | 129° |
| 2026-04-30 20:08 | 35.84463 | 14.49424 | 259 ft | 21 kts | 108° |
| 2026-04-30 20:09 | 35.84451 | 14.49543 | 258 ft | 11 kts | 67° |
| 2026-04-30 20:09 | 35.84525 | 14.49565 | 257 ft | 13 kts | 331° |
| 2026-04-30 20:09 | 35.84682 | 14.49566 | 258 ft | 12 kts | 339° |
| 2026-04-30 20:10 | 35.84823 | 14.49513 | 258 ft | 1 kts | 359° |
| 2026-04-30 20:10 | 35.84824 | 14.49513 | 258 ft | 0 kts | 359° |